sensor_id;sensor_type;location;lat;lon;timestamp;temperature;humidity
72114;SHT31;59989;46.220;19.888;2023-03-11T00:02:14;9.97;92.64
72114;SHT31;59989;46.220;19.888;2023-03-11T00:05:19;9.95;92.72
72114;SHT31;59989;46.220;19.888;2023-03-11T00:08:23;9.99;92.61
72114;SHT31;59989;46.220;19.888;2023-03-11T00:11:26;9.95;92.64
72114;SHT31;59989;46.220;19.888;2023-03-11T00:14:28;9.91;92.53
72114;SHT31;59989;46.220;19.888;2023-03-11T00:17:31;9.91;92.47
72114;SHT31;59989;46.220;19.888;2023-03-11T00:20:38;9.88;92.43
72114;SHT31;59989;46.220;19.888;2023-03-11T00:23:41;9.88;92.38
72114;SHT31;59989;46.220;19.888;2023-03-11T00:26:43;9.87;92.36
72114;SHT31;59989;46.220;19.888;2023-03-11T00:29:46;9.87;92.43
72114;SHT31;59989;46.220;19.888;2023-03-11T00:32:52;9.81;92.67
72114;SHT31;59989;46.220;19.888;2023-03-11T00:35:55;9.80;92.80
72114;SHT31;59989;46.220;19.888;2023-03-11T00:38:59;9.77;92.87
72114;SHT31;59989;46.220;19.888;2023-03-11T00:42:03;9.80;92.89
72114;SHT31;59989;46.220;19.888;2023-03-11T00:45:07;9.75;92.81
72114;SHT31;59989;46.220;19.888;2023-03-11T00:48:10;9.75;92.67
72114;SHT31;59989;46.220;19.888;2023-03-11T00:51:14;9.77;92.62
72114;SHT31;59989;46.220;19.888;2023-03-11T00:54:17;9.74;92.64
72114;SHT31;59989;46.220;19.888;2023-03-11T00:57:20;9.73;92.59
72114;SHT31;59989;46.220;19.888;2023-03-11T01:00:24;9.73;92.65
72114;SHT31;59989;46.220;19.888;2023-03-11T01:03:32;9.70;92.60
72114;SHT31;59989;46.220;19.888;2023-03-11T01:06:34;9.71;92.65
72114;SHT31;59989;46.220;19.888;2023-03-11T01:09:46;9.65;92.73
72114;SHT31;59989;46.220;19.888;2023-03-11T01:12:49;9.65;92.57
72114;SHT31;59989;46.220;19.888;2023-03-11T01:15:52;9.69;92.21
72114;SHT31;59989;46.220;19.888;2023-03-11T01:18:55;9.73;91.74
72114;SHT31;59989;46.220;19.888;2023-03-11T01:21:58;9.77;91.15
72114;SHT31;59989;46.220;19.888;2023-03-11T01:25:01;9.82;90.87
72114;SHT31;59989;46.220;19.888;2023-03-11T01:28:05;9.75;91.13
72114;SHT31;59989;46.220;19.888;2023-03-11T01:31:09;9.71;91.36
72114;SHT31;59989;46.220;19.888;2023-03-11T01:34:12;9.70;91.58
72114;SHT31;59989;46.220;19.888;2023-03-11T01:37:15;9.67;91.79
72114;SHT31;59989;46.220;19.888;2023-03-11T01:40:45;9.61;92.17
72114;SHT31;59989;46.220;19.888;2023-03-11T01:43:51;9.54;92.51
72114;SHT31;59989;46.220;19.888;2023-03-11T01:50:10;9.48;92.79
72114;SHT31;59989;46.220;19.888;2023-03-11T01:53:15;9.44;92.95
72114;SHT31;59989;46.220;19.888;2023-03-11T01:56:18;9.39;93.03
72114;SHT31;59989;46.220;19.888;2023-03-11T01:59:26;9.36;93.17
72114;SHT31;59989;46.220;19.888;2023-03-11T02:02:34;9.36;93.07
72114;SHT31;59989;46.220;19.888;2023-03-11T02:05:39;9.34;93.08
72114;SHT31;59989;46.220;19.888;2023-03-11T02:08:43;9.32;93.08
72114;SHT31;59989;46.220;19.888;2023-03-11T02:11:49;9.33;92.88
72114;SHT31;59989;46.220;19.888;2023-03-11T02:14:52;9.33;92.52
72114;SHT31;59989;46.220;19.888;2023-03-11T02:17:58;9.29;92.24
72114;SHT31;59989;46.220;19.888;2023-03-11T02:21:21;9.33;91.29
72114;SHT31;59989;46.220;19.888;2023-03-11T02:28:19;9.37;90.26
72114;SHT31;59989;46.220;19.888;2023-03-11T02:31:24;9.36;89.73
72114;SHT31;59989;46.220;19.888;2023-03-11T02:34:30;9.34;89.47
72114;SHT31;59989;46.220;19.888;2023-03-11T02:37:34;9.34;88.60
72114;SHT31;59989;46.220;19.888;2023-03-11T02:40:47;9.55;87.33
72114;SHT31;59989;46.220;19.888;2023-03-11T02:43:53;9.63;85.76
72114;SHT31;59989;46.220;19.888;2023-03-11T02:46:57;9.64;85.43
72114;SHT31;59989;46.220;19.888;2023-03-11T02:50:01;9.69;84.99
72114;SHT31;59989;46.220;19.888;2023-03-11T02:53:05;9.75;82.81
72114;SHT31;59989;46.220;19.888;2023-03-11T02:56:08;9.70;83.86
72114;SHT31;59989;46.220;19.888;2023-03-11T02:59:10;9.70;83.02
72114;SHT31;59989;46.220;19.888;2023-03-11T03:02:15;9.64;83.56
72114;SHT31;59989;46.220;19.888;2023-03-11T03:05:19;9.61;82.46
72114;SHT31;59989;46.220;19.888;2023-03-11T03:08:22;9.63;81.90
72114;SHT31;59989;46.220;19.888;2023-03-11T03:11:25;9.67;80.66
72114;SHT31;59989;46.220;19.888;2023-03-11T03:14:28;9.69;80.54
72114;SHT31;59989;46.220;19.888;2023-03-11T03:17:30;9.69;78.94
72114;SHT31;59989;46.220;19.888;2023-03-11T03:20:34;9.60;79.99
72114;SHT31;59989;46.220;19.888;2023-03-11T03:23:37;9.53;80.35
72114;SHT31;59989;46.220;19.888;2023-03-11T03:26:39;9.53;78.87
72114;SHT31;59989;46.220;19.888;2023-03-11T03:29:42;9.48;79.13
72114;SHT31;59989;46.220;19.888;2023-03-11T03:32:45;9.44;78.61
72114;SHT31;59989;46.220;19.888;2023-03-11T03:35:50;9.36;78.84
72114;SHT31;59989;46.220;19.888;2023-03-11T03:38:56;9.30;79.76
72114;SHT31;59989;46.220;19.888;2023-03-11T03:42:04;9.19;79.91
72114;SHT31;59989;46.220;19.888;2023-03-11T03:45:09;9.16;80.31
72114;SHT31;59989;46.220;19.888;2023-03-11T03:48:11;9.15;78.78
72114;SHT31;59989;46.220;19.888;2023-03-11T03:51:18;9.18;78.79
72114;SHT31;59989;46.220;19.888;2023-03-11T03:54:35;9.11;78.79
72114;SHT31;59989;46.220;19.888;2023-03-11T03:57:38;9.09;78.67
72114;SHT31;59989;46.220;19.888;2023-03-11T04:00:44;9.08;78.37
72114;SHT31;59989;46.220;19.888;2023-03-11T04:03:46;8.98;79.06
72114;SHT31;59989;46.220;19.888;2023-03-11T04:06:50;8.98;79.18
72114;SHT31;59989;46.220;19.888;2023-03-11T04:09:53;8.92;79.39
72114;SHT31;59989;46.220;19.888;2023-03-11T04:12:56;8.91;79.00
72114;SHT31;59989;46.220;19.888;2023-03-11T04:16:02;8.89;78.19
72114;SHT31;59989;46.220;19.888;2023-03-11T04:19:05;8.96;77.07
72114;SHT31;59989;46.220;19.888;2023-03-11T04:22:09;8.86;79.72
72114;SHT31;59989;46.220;19.888;2023-03-11T04:25:11;8.78;79.02
72114;SHT31;59989;46.220;19.888;2023-03-11T04:28:14;8.76;79.02
72114;SHT31;59989;46.220;19.888;2023-03-11T04:31:19;8.75;79.37
72114;SHT31;59989;46.220;19.888;2023-03-11T04:34:22;8.72;79.96
72114;SHT31;59989;46.220;19.888;2023-03-11T04:37:28;8.67;79.01
72114;SHT31;59989;46.220;19.888;2023-03-11T04:40:33;8.65;79.76
72114;SHT31;59989;46.220;19.888;2023-03-11T04:43:35;8.57;80.80
72114;SHT31;59989;46.220;19.888;2023-03-11T04:46:38;8.67;79.02
72114;SHT31;59989;46.220;19.888;2023-03-11T04:49:42;8.76;78.85
72114;SHT31;59989;46.220;19.888;2023-03-11T04:52:47;8.81;77.03
72114;SHT31;59989;46.220;19.888;2023-03-11T04:55:49;8.88;78.03
72114;SHT31;59989;46.220;19.888;2023-03-11T04:58:54;8.95;75.26
72114;SHT31;59989;46.220;19.888;2023-03-11T05:01:58;9.13;73.72
72114;SHT31;59989;46.220;19.888;2023-03-11T05:05:01;9.25;70.03
72114;SHT31;59989;46.220;19.888;2023-03-11T05:08:05;9.40;66.77
72114;SHT31;59989;46.220;19.888;2023-03-11T05:11:08;9.30;67.57
72114;SHT31;59989;46.220;19.888;2023-03-11T05:14:11;9.15;68.65
72114;SHT31;59989;46.220;19.888;2023-03-11T05:17:14;9.08;67.13
72114;SHT31;59989;46.220;19.888;2023-03-11T05:20:21;8.98;65.56
72114;SHT31;59989;46.220;19.888;2023-03-11T05:23:23;8.88;64.14
72114;SHT31;59989;46.220;19.888;2023-03-11T05:26:26;8.79;64.58
72114;SHT31;59989;46.220;19.888;2023-03-11T05:29:29;8.71;65.32
72114;SHT31;59989;46.220;19.888;2023-03-11T05:32:32;8.60;66.03
72114;SHT31;59989;46.220;19.888;2023-03-11T05:35:35;8.57;65.16
72114;SHT31;59989;46.220;19.888;2023-03-11T05:38:38;8.53;66.16
72114;SHT31;59989;46.220;19.888;2023-03-11T05:41:41;8.48;64.75
72114;SHT31;59989;46.220;19.888;2023-03-11T05:44:44;8.53;64.29
72114;SHT31;59989;46.220;19.888;2023-03-11T05:47:47;8.53;63.47
72114;SHT31;59989;46.220;19.888;2023-03-11T05:50:51;8.37;64.71
72114;SHT31;59989;46.220;19.888;2023-03-11T05:53:56;8.25;64.27
72114;SHT31;59989;46.220;19.888;2023-03-11T05:57:09;8.16;64.94
72114;SHT31;59989;46.220;19.888;2023-03-11T06:00:12;8.07;65.85
72114;SHT31;59989;46.220;19.888;2023-03-11T06:03:16;7.96;66.96
72114;SHT31;59989;46.220;19.888;2023-03-11T06:06:19;7.86;67.28
72114;SHT31;59989;46.220;19.888;2023-03-11T06:09:22;7.79;68.62
72114;SHT31;59989;46.220;19.888;2023-03-11T06:12:26;7.61;69.11
72114;SHT31;59989;46.220;19.888;2023-03-11T06:15:58;7.51;69.81
72114;SHT31;59989;46.220;19.888;2023-03-11T06:19:01;7.44;70.42
72114;SHT31;59989;46.220;19.888;2023-03-11T06:22:07;7.26;72.10
72114;SHT31;59989;46.220;19.888;2023-03-11T06:25:10;7.14;73.46
72114;SHT31;59989;46.220;19.888;2023-03-11T06:28:16;6.96;74.03
72114;SHT31;59989;46.220;19.888;2023-03-11T06:31:22;6.73;76.76
72114;SHT31;59989;46.220;19.888;2023-03-11T06:34:27;6.53;76.65
72114;SHT31;59989;46.220;19.888;2023-03-11T06:37:29;6.25;77.21
72114;SHT31;59989;46.220;19.888;2023-03-11T06:40:35;5.99;79.11
72114;SHT31;59989;46.220;19.888;2023-03-11T06:43:38;5.83;79.96
72114;SHT31;59989;46.220;19.888;2023-03-11T06:46:41;5.56;79.89
72114;SHT31;59989;46.220;19.888;2023-03-11T06:49:44;5.38;81.36
72114;SHT31;59989;46.220;19.888;2023-03-11T06:52:46;5.28;82.57
72114;SHT31;59989;46.220;19.888;2023-03-11T06:56:09;5.21;82.58
72114;SHT31;59989;46.220;19.888;2023-03-11T06:59:18;5.21;81.93
72114;SHT31;59989;46.220;19.888;2023-03-11T07:02:20;5.14;82.11
72114;SHT31;59989;46.220;19.888;2023-03-11T07:05:23;5.17;83.59
72114;SHT31;59989;46.220;19.888;2023-03-11T07:08:30;5.27;81.39
72114;SHT31;59989;46.220;19.888;2023-03-11T07:11:33;5.34;81.68
72114;SHT31;59989;46.220;19.888;2023-03-11T07:14:44;5.65;73.42
72114;SHT31;59989;46.220;19.888;2023-03-11T07:17:47;5.83;70.50
72114;SHT31;59989;46.220;19.888;2023-03-11T07:20:50;5.94;67.46
72114;SHT31;59989;46.220;19.888;2023-03-11T07:23:53;5.86;65.04
72114;SHT31;59989;46.220;19.888;2023-03-11T07:26:56;5.79;66.04
72114;SHT31;59989;46.220;19.888;2023-03-11T07:30:00;6.03;62.90
72114;SHT31;59989;46.220;19.888;2023-03-11T07:33:04;6.10;62.51
72114;SHT31;59989;46.220;19.888;2023-03-11T07:36:11;6.10;64.72
72114;SHT31;59989;46.220;19.888;2023-03-11T07:39:17;6.22;60.07
72114;SHT31;59989;46.220;19.888;2023-03-11T07:42:20;6.30;58.68
72114;SHT31;59989;46.220;19.888;2023-03-11T07:45:23;6.35;60.98
72114;SHT31;59989;46.220;19.888;2023-03-11T07:48:25;6.52;57.04
72114;SHT31;59989;46.220;19.888;2023-03-11T07:51:30;6.62;56.73
72114;SHT31;59989;46.220;19.888;2023-03-11T07:54:32;6.68;56.64
72114;SHT31;59989;46.220;19.888;2023-03-11T07:57:35;6.61;57.73
72114;SHT31;59989;46.220;19.888;2023-03-11T08:00:37;6.56;56.77
72114;SHT31;59989;46.220;19.888;2023-03-11T08:03:41;6.58;57.50
72114;SHT31;59989;46.220;19.888;2023-03-11T08:06:46;6.56;56.59
72114;SHT31;59989;46.220;19.888;2023-03-11T08:09:49;6.62;56.94
72114;SHT31;59989;46.220;19.888;2023-03-11T08:12:51;6.59;55.50
72114;SHT31;59989;46.220;19.888;2023-03-11T08:15:54;6.62;58.34
72114;SHT31;59989;46.220;19.888;2023-03-11T08:18:56;6.64;56.52
72114;SHT31;59989;46.220;19.888;2023-03-11T08:22:03;6.68;56.29
72114;SHT31;59989;46.220;19.888;2023-03-11T08:25:06;6.78;55.90
72114;SHT31;59989;46.220;19.888;2023-03-11T08:28:08;6.79;57.91
72114;SHT31;59989;46.220;19.888;2023-03-11T08:31:22;6.78;58.34
72114;SHT31;59989;46.220;19.888;2023-03-11T08:34:26;6.82;53.63
72114;SHT31;59989;46.220;19.888;2023-03-11T08:37:31;6.79;55.34
72114;SHT31;59989;46.220;19.888;2023-03-11T08:40:34;6.83;53.39
72114;SHT31;59989;46.220;19.888;2023-03-11T08:43:37;6.85;51.73
72114;SHT31;59989;46.220;19.888;2023-03-11T08:46:40;6.92;51.38
72114;SHT31;59989;46.220;19.888;2023-03-11T08:49:42;6.99;51.69
72114;SHT31;59989;46.220;19.888;2023-03-11T08:52:45;7.10;50.68
72114;SHT31;59989;46.220;19.888;2023-03-11T08:55:49;7.17;50.74
72114;SHT31;59989;46.220;19.888;2023-03-11T08:58:51;7.17;51.50
72114;SHT31;59989;46.220;19.888;2023-03-11T09:01:54;7.27;51.15
72114;SHT31;59989;46.220;19.888;2023-03-11T09:04:57;7.27;50.54
72114;SHT31;59989;46.220;19.888;2023-03-11T09:07:59;7.13;48.77
72114;SHT31;59989;46.220;19.888;2023-03-11T09:11:02;7.17;50.81
72114;SHT31;59989;46.220;19.888;2023-03-11T09:14:04;7.17;49.95
72114;SHT31;59989;46.220;19.888;2023-03-11T09:17:08;7.17;50.33
72114;SHT31;59989;46.220;19.888;2023-03-11T09:20:12;7.14;51.22
72114;SHT31;59989;46.220;19.888;2023-03-11T09:23:16;7.13;47.72
72114;SHT31;59989;46.220;19.888;2023-03-11T09:26:19;7.27;49.39
72114;SHT31;59989;46.220;19.888;2023-03-11T09:29:21;7.28;50.66
72114;SHT31;59989;46.220;19.888;2023-03-11T09:32:24;7.32;50.07
72114;SHT31;59989;46.220;19.888;2023-03-11T09:35:28;7.30;47.66
72114;SHT31;59989;46.220;19.888;2023-03-11T09:38:30;7.19;47.83
72114;SHT31;59989;46.220;19.888;2023-03-11T09:45:12;7.19;48.60
72114;SHT31;59989;46.220;19.888;2023-03-11T09:48:33;7.23;46.32
72114;SHT31;59989;46.220;19.888;2023-03-11T09:51:41;7.40;46.39
72114;SHT31;59989;46.220;19.888;2023-03-11T09:54:50;7.62;48.15
72114;SHT31;59989;46.220;19.888;2023-03-11T09:57:55;7.67;47.44
72114;SHT31;59989;46.220;19.888;2023-03-11T10:00:59;7.75;46.13
72114;SHT31;59989;46.220;19.888;2023-03-11T10:07:44;7.86;46.12
72114;SHT31;59989;46.220;19.888;2023-03-11T10:17:43;7.89;45.79
72114;SHT31;59989;46.220;19.888;2023-03-11T10:28:07;8.20;46.30
72114;SHT31;59989;46.220;19.888;2023-03-11T10:34:56;7.68;44.99
72114;SHT31;59989;46.220;19.888;2023-03-11T10:41:23;8.13;47.01
72114;SHT31;59989;46.220;19.888;2023-03-11T10:44:38;8.19;44.02
72114;SHT31;59989;46.220;19.888;2023-03-11T10:47:41;8.47;44.46
72114;SHT31;59989;46.220;19.888;2023-03-11T10:51:01;8.38;45.22
72114;SHT31;59989;46.220;19.888;2023-03-11T10:54:05;8.03;44.75
72114;SHT31;59989;46.220;19.888;2023-03-11T10:57:29;8.32;44.81
72114;SHT31;59989;46.220;19.888;2023-03-11T11:00:33;8.65;44.86
72114;SHT31;59989;46.220;19.888;2023-03-11T11:03:40;8.44;45.90
72114;SHT31;59989;46.220;19.888;2023-03-11T11:06:44;8.40;44.61
72114;SHT31;59989;46.220;19.888;2023-03-11T11:09:47;8.75;43.54
72114;SHT31;59989;46.220;19.888;2023-03-11T11:19:18;8.53;44.15
72114;SHT31;59989;46.220;19.888;2023-03-11T11:22:22;8.53;43.41
72114;SHT31;59989;46.220;19.888;2023-03-11T11:25:39;8.78;42.71
72114;SHT31;59989;46.220;19.888;2023-03-11T11:28:45;8.72;42.63
72114;SHT31;59989;46.220;19.888;2023-03-11T11:31:47;9.30;44.91
72114;SHT31;59989;46.220;19.888;2023-03-11T11:38:00;9.15;41.88
72114;SHT31;59989;46.220;19.888;2023-03-11T11:41:04;8.86;44.45
72114;SHT31;59989;46.220;19.888;2023-03-11T11:44:11;8.76;43.76
72114;SHT31;59989;46.220;19.888;2023-03-11T11:47:20;8.50;43.43
72114;SHT31;59989;46.220;19.888;2023-03-11T11:50:31;8.75;45.74
72114;SHT31;59989;46.220;19.888;2023-03-11T11:53:50;8.76;45.35
72114;SHT31;59989;46.220;19.888;2023-03-11T11:56:56;9.12;43.96
72114;SHT31;59989;46.220;19.888;2023-03-11T12:00:00;9.84;43.27
72114;SHT31;59989;46.220;19.888;2023-03-11T12:03:25;9.63;41.89
72114;SHT31;59989;46.220;19.888;2023-03-11T12:06:46;9.55;43.53
72114;SHT31;59989;46.220;19.888;2023-03-11T12:19:54;10.87;41.70
72114;SHT31;59989;46.220;19.888;2023-03-11T12:23:23;11.51;39.06
72114;SHT31;59989;46.220;19.888;2023-03-11T12:26:34;11.36;39.77
72114;SHT31;59989;46.220;19.888;2023-03-11T12:29:43;12.27;39.30
72114;SHT31;59989;46.220;19.888;2023-03-11T12:32:55;10.85;40.09
72114;SHT31;59989;46.220;19.888;2023-03-11T12:36:00;10.21;40.76
72114;SHT31;59989;46.220;19.888;2023-03-11T12:39:07;11.58;39.67
72114;SHT31;59989;46.220;19.888;2023-03-11T12:42:22;12.49;36.94
72114;SHT31;59989;46.220;19.888;2023-03-11T12:58:39;10.38;39.25
72114;SHT31;59989;46.220;19.888;2023-03-11T13:05:19;11.14;35.90
72114;SHT31;59989;46.220;19.888;2023-03-11T13:08:34;11.01;36.15
72114;SHT31;59989;46.220;19.888;2023-03-11T13:11:44;11.35;36.26
72114;SHT31;59989;46.220;19.888;2023-03-11T13:14:47;11.66;36.63
72114;SHT31;59989;46.220;19.888;2023-03-11T13:18:14;10.40;39.81
72114;SHT31;59989;46.220;19.888;2023-03-11T13:27:38;9.61;40.62
72114;SHT31;59989;46.220;19.888;2023-03-11T13:30:58;9.23;40.72
72114;SHT31;59989;46.220;19.888;2023-03-11T13:43:43;9.36;38.70
72114;SHT31;59989;46.220;19.888;2023-03-11T13:46:48;9.30;40.80
72114;SHT31;59989;46.220;19.888;2023-03-11T13:50:29;9.46;40.54
72114;SHT31;59989;46.220;19.888;2023-03-11T13:53:41;9.67;40.73
72114;SHT31;59989;46.220;19.888;2023-03-11T13:56:55;9.82;40.61
72114;SHT31;59989;46.220;19.888;2023-03-11T14:00:14;9.87;40.47
72114;SHT31;59989;46.220;19.888;2023-03-11T14:03:19;9.75;39.72
72114;SHT31;59989;46.220;19.888;2023-03-11T14:06:23;10.05;39.27
72114;SHT31;59989;46.220;19.888;2023-03-11T14:09:27;10.53;39.15
72114;SHT31;59989;46.220;19.888;2023-03-11T14:12:30;10.40;39.53
72114;SHT31;59989;46.220;19.888;2023-03-11T14:15:46;10.35;39.28
72114;SHT31;59989;46.220;19.888;2023-03-11T14:22:14;10.16;40.13
72114;SHT31;59989;46.220;19.888;2023-03-11T14:25:24;10.26;39.42
72114;SHT31;59989;46.220;19.888;2023-03-11T14:28:30;10.02;39.53
72114;SHT31;59989;46.220;19.888;2023-03-11T14:31:39;10.21;39.78
72114;SHT31;59989;46.220;19.888;2023-03-11T14:34:42;10.01;40.23
72114;SHT31;59989;46.220;19.888;2023-03-11T14:37:47;9.82;39.37
72114;SHT31;59989;46.220;19.888;2023-03-11T14:40:56;9.60;39.08
72114;SHT31;59989;46.220;19.888;2023-03-11T14:43:59;9.85;40.42
72114;SHT31;59989;46.220;19.888;2023-03-11T14:47:10;9.75;39.18
72114;SHT31;59989;46.220;19.888;2023-03-11T14:50:19;9.80;39.41
72114;SHT31;59989;46.220;19.888;2023-03-11T14:56:48;9.48;40.65
72114;SHT31;59989;46.220;19.888;2023-03-11T14:59:54;9.19;40.63
72114;SHT31;59989;46.220;19.888;2023-03-11T15:06:28;8.96;41.60
72114;SHT31;59989;46.220;19.888;2023-03-11T15:09:31;8.91;42.08
72114;SHT31;59989;46.220;19.888;2023-03-11T15:12:40;8.75;41.48
72114;SHT31;59989;46.220;19.888;2023-03-11T15:15:54;8.75;42.38
72114;SHT31;59989;46.220;19.888;2023-03-11T15:19:19;8.84;43.21
72114;SHT31;59989;46.220;19.888;2023-03-11T15:22:26;8.79;43.00
72114;SHT31;59989;46.220;19.888;2023-03-11T15:25:32;8.91;43.60
72114;SHT31;59989;46.220;19.888;2023-03-11T15:28:37;8.78;42.94
72114;SHT31;59989;46.220;19.888;2023-03-11T15:31:41;8.55;42.15
72114;SHT31;59989;46.220;19.888;2023-03-11T15:34:58;8.34;41.74
72114;SHT31;59989;46.220;19.888;2023-03-11T15:38:21;8.16;42.38
72114;SHT31;59989;46.220;19.888;2023-03-11T15:41:26;8.20;43.68
72114;SHT31;59989;46.220;19.888;2023-03-11T15:44:40;8.09;44.82
72114;SHT31;59989;46.220;19.888;2023-03-11T15:47:45;8.03;45.29
72114;SHT31;59989;46.220;19.888;2023-03-11T15:50:50;7.90;44.36
72114;SHT31;59989;46.220;19.888;2023-03-11T15:53:56;7.98;45.75
72114;SHT31;59989;46.220;19.888;2023-03-11T15:56:59;8.00;44.87
72114;SHT31;59989;46.220;19.888;2023-03-11T16:00:03;7.93;44.39
72114;SHT31;59989;46.220;19.888;2023-03-11T16:03:08;7.92;44.08
72114;SHT31;59989;46.220;19.888;2023-03-11T16:06:11;7.90;46.12
72114;SHT31;59989;46.220;19.888;2023-03-11T16:09:14;7.81;46.62
72114;SHT31;59989;46.220;19.888;2023-03-11T16:12:21;7.74;47.17
72114;SHT31;59989;46.220;19.888;2023-03-11T16:15:27;7.67;46.72
72114;SHT31;59989;46.220;19.888;2023-03-11T16:18:31;7.54;46.36
72114;SHT31;59989;46.220;19.888;2023-03-11T16:21:43;7.48;46.69
72114;SHT31;59989;46.220;19.888;2023-03-11T16:24:50;7.37;46.25
72114;SHT31;59989;46.220;19.888;2023-03-11T16:27:54;7.16;44.85
72114;SHT31;59989;46.220;19.888;2023-03-11T16:30:57;6.96;45.45
72114;SHT31;59989;46.220;19.888;2023-03-11T16:34:00;6.82;45.25
72114;SHT31;59989;46.220;19.888;2023-03-11T16:37:07;6.71;45.61
72114;SHT31;59989;46.220;19.888;2023-03-11T16:40:23;6.59;46.14
72114;SHT31;59989;46.220;19.888;2023-03-11T16:43:30;6.52;46.11
72114;SHT31;59989;46.220;19.888;2023-03-11T16:46:33;6.46;46.73
72114;SHT31;59989;46.220;19.888;2023-03-11T16:49:36;6.46;46.54
72114;SHT31;59989;46.220;19.888;2023-03-11T16:52:38;6.34;47.33
72114;SHT31;59989;46.220;19.888;2023-03-11T16:55:43;6.24;48.53
72114;SHT31;59989;46.220;19.888;2023-03-11T16:58:46;6.22;48.79
72114;SHT31;59989;46.220;19.888;2023-03-11T17:01:50;6.27;47.36
72114;SHT31;59989;46.220;19.888;2023-03-11T17:04:53;6.21;47.55
72114;SHT31;59989;46.220;19.888;2023-03-11T17:07:57;6.10;48.50
72114;SHT31;59989;46.220;19.888;2023-03-11T17:11:03;6.11;47.87
72114;SHT31;59989;46.220;19.888;2023-03-11T17:14:05;6.07;48.23
72114;SHT31;59989;46.220;19.888;2023-03-11T17:17:18;6.00;48.40
72114;SHT31;59989;46.220;19.888;2023-03-11T17:20:21;5.93;48.91
72114;SHT31;59989;46.220;19.888;2023-03-11T17:23:24;5.83;49.14
72114;SHT31;59989;46.220;19.888;2023-03-11T17:26:26;5.83;48.23
72114;SHT31;59989;46.220;19.888;2023-03-11T17:29:32;5.82;47.85
72114;SHT31;59989;46.220;19.888;2023-03-11T17:32:35;5.77;47.90
72114;SHT31;59989;46.220;19.888;2023-03-11T17:35:39;5.67;49.05
72114;SHT31;59989;46.220;19.888;2023-03-11T17:38:44;5.65;48.65
72114;SHT31;59989;46.220;19.888;2023-03-11T17:41:47;5.53;48.92
72114;SHT31;59989;46.220;19.888;2023-03-11T17:44:54;5.46;49.29
72114;SHT31;59989;46.220;19.888;2023-03-11T17:47:56;5.41;49.89
72114;SHT31;59989;46.220;19.888;2023-03-11T17:51:06;5.28;50.95
72114;SHT31;59989;46.220;19.888;2023-03-11T17:54:09;5.32;50.56
72114;SHT31;59989;46.220;19.888;2023-03-11T17:57:11;5.27;50.35
72114;SHT31;59989;46.220;19.888;2023-03-11T18:00:14;5.23;50.83
72114;SHT31;59989;46.220;19.888;2023-03-11T18:03:17;5.13;51.21
72114;SHT31;59989;46.220;19.888;2023-03-11T18:06:20;5.10;50.84
72114;SHT31;59989;46.220;19.888;2023-03-11T18:09:23;5.03;51.35
72114;SHT31;59989;46.220;19.888;2023-03-11T18:12:33;5.04;50.72
72114;SHT31;59989;46.220;19.888;2023-03-11T18:15:36;5.04;50.90
72114;SHT31;59989;46.220;19.888;2023-03-11T18:18:39;4.97;51.51
72114;SHT31;59989;46.220;19.888;2023-03-11T18:21:42;4.88;51.59
72114;SHT31;59989;46.220;19.888;2023-03-11T18:24:47;4.84;51.97
72114;SHT31;59989;46.220;19.888;2023-03-11T18:27:50;4.81;51.04
72114;SHT31;59989;46.220;19.888;2023-03-11T18:30:54;4.81;51.81
72114;SHT31;59989;46.220;19.888;2023-03-11T18:33:59;4.67;52.45
72114;SHT31;59989;46.220;19.888;2023-03-11T18:37:03;4.55;53.08
72114;SHT31;59989;46.220;19.888;2023-03-11T18:40:06;4.69;52.07
72114;SHT31;59989;46.220;19.888;2023-03-11T18:43:11;4.63;52.44
72114;SHT31;59989;46.220;19.888;2023-03-11T18:46:15;4.53;52.60
72114;SHT31;59989;46.220;19.888;2023-03-11T18:49:18;4.44;54.36
72114;SHT31;59989;46.220;19.888;2023-03-11T18:52:21;4.36;53.55
72114;SHT31;59989;46.220;19.888;2023-03-11T18:55:24;4.35;54.34
72114;SHT31;59989;46.220;19.888;2023-03-11T18:58:27;4.31;53.82
72114;SHT31;59989;46.220;19.888;2023-03-11T19:01:29;4.26;53.82
72114;SHT31;59989;46.220;19.888;2023-03-11T19:04:32;4.18;54.48
72114;SHT31;59989;46.220;19.888;2023-03-11T19:07:35;4.18;54.39
72114;SHT31;59989;46.220;19.888;2023-03-11T19:10:39;4.09;55.86
72114;SHT31;59989;46.220;19.888;2023-03-11T19:13:43;4.02;56.26
72114;SHT31;59989;46.220;19.888;2023-03-11T19:16:49;3.99;56.46
72114;SHT31;59989;46.220;19.888;2023-03-11T19:19:52;3.91;56.02
72114;SHT31;59989;46.220;19.888;2023-03-11T19:22:55;3.98;56.34
72114;SHT31;59989;46.220;19.888;2023-03-11T19:25:58;3.91;56.57
72114;SHT31;59989;46.220;19.888;2023-03-11T19:29:05;3.90;56.00
72114;SHT31;59989;46.220;19.888;2023-03-11T19:32:08;3.83;56.43
72114;SHT31;59989;46.220;19.888;2023-03-11T19:35:11;3.80;56.41
72114;SHT31;59989;46.220;19.888;2023-03-11T19:38:16;3.81;56.30
72114;SHT31;59989;46.220;19.888;2023-03-11T19:41:18;3.81;56.43
72114;SHT31;59989;46.220;19.888;2023-03-11T19:44:21;3.74;57.11
72114;SHT31;59989;46.220;19.888;2023-03-11T19:47:24;3.73;56.48
72114;SHT31;59989;46.220;19.888;2023-03-11T19:50:28;3.70;57.48
72114;SHT31;59989;46.220;19.888;2023-03-11T19:53:32;3.67;58.39
72114;SHT31;59989;46.220;19.888;2023-03-11T19:56:35;3.53;59.05
72114;SHT31;59989;46.220;19.888;2023-03-11T19:59:38;3.57;58.72
72114;SHT31;59989;46.220;19.888;2023-03-11T20:02:41;3.56;58.58
72114;SHT31;59989;46.220;19.888;2023-03-11T20:05:45;3.44;59.65
72114;SHT31;59989;46.220;19.888;2023-03-11T20:08:49;3.43;59.48
72114;SHT31;59989;46.220;19.888;2023-03-11T20:11:52;3.46;58.49
72114;SHT31;59989;46.220;19.888;2023-03-11T20:14:55;3.43;58.82
72114;SHT31;59989;46.220;19.888;2023-03-11T20:17:58;3.44;58.91
72114;SHT31;59989;46.220;19.888;2023-03-11T20:21:07;3.42;58.82
72114;SHT31;59989;46.220;19.888;2023-03-11T20:24:10;3.38;58.72
72114;SHT31;59989;46.220;19.888;2023-03-11T20:27:13;3.39;59.15
72114;SHT31;59989;46.220;19.888;2023-03-11T20:30:16;3.32;59.75
72114;SHT31;59989;46.220;19.888;2023-03-11T20:33:23;3.26;59.57
72114;SHT31;59989;46.220;19.888;2023-03-11T20:36:27;3.23;60.08
72114;SHT31;59989;46.220;19.888;2023-03-11T20:39:31;3.16;60.28
72114;SHT31;59989;46.220;19.888;2023-03-11T20:42:34;3.13;60.82
72114;SHT31;59989;46.220;19.888;2023-03-11T20:45:37;3.18;60.07
72114;SHT31;59989;46.220;19.888;2023-03-11T20:48:41;3.20;60.20
72114;SHT31;59989;46.220;19.888;2023-03-11T20:51:43;3.22;60.32
72114;SHT31;59989;46.220;19.888;2023-03-11T20:54:49;3.23;60.28
72114;SHT31;59989;46.220;19.888;2023-03-11T20:57:52;3.20;59.97
72114;SHT31;59989;46.220;19.888;2023-03-11T21:00:55;3.13;61.36
72114;SHT31;59989;46.220;19.888;2023-03-11T21:04:00;3.15;60.65
72114;SHT31;59989;46.220;19.888;2023-03-11T21:07:03;3.09;60.63
72114;SHT31;59989;46.220;19.888;2023-03-11T21:10:08;3.07;60.64